Time;durP1;ratioP1;P1;durP2;ratioP2;P2;SDS_P1;SDS_P2;PMS_P1;PMS_P2;Temp;Humidity;BMP_temperature;BMP_pressure;BME280_temperature;BME280_humidity;BME280_pressure;Samples;Min_cycle;Max_cycle;Signal;HPM_P1;HPM_P2
2024/05/07 00:02:07;;;;;;;149.63;49.37;;;18.90;76.00;;;;;;5487695;26;20332;-54
2024/05/07 00:04:37;;;;;;;149.97;49.53;;;18.90;76.20;;;;;;5451825;26;20225;-54
2024/05/07 00:07:10;;;;;;;149.73;49.47;;;18.80;76.00;;;;;;5452041;26;20238;-53
2024/05/07 00:09:40;;;;;;;149.43;49.33;;;18.90;76.40;;;;;;5451744;26;20225;-54
2024/05/07 00:12:10;;;;;;;149.57;49.20;;;18.90;76.90;;;;;;5451049;26;20731;-54
2024/05/07 00:14:40;;;;;;;149.57;49.03;;;18.80;76.00;;;;;;5451829;26;20313;-54
2024/05/07 00:17:10;;;;;;;149.33;49.03;;;18.80;76.00;;;;;;5451955;26;20253;-53
2024/05/07 00:19:40;;;;;;;150.30;49.57;;;18.90;76.80;;;;;;5451584;26;20338;-54
2024/05/07 00:22:13;;;;;;;149.77;49.43;;;18.90;77.50;;;;;;5451643;26;20746;-54
2024/05/07 00:24:43;;;;;;;149.87;49.77;;;18.90;76.20;;;;;;5451700;26;20269;-54
2024/05/07 00:27:13;;;;;;;150.03;49.60;;;19.00;77.10;;;;;;5451226;26;20242;-54
2024/05/07 00:29:43;;;;;;;149.50;49.20;;;18.90;77.50;;;;;;5451406;26;20234;-54
2024/05/07 00:32:13;;;;;;;149.83;49.67;;;19.00;76.20;;;;;;5451446;26;20241;-54
2024/05/07 00:34:43;;;;;;;150.13;49.67;;;19.00;76.80;;;;;;5451382;26;20242;-54
2024/05/07 00:37:16;;;;;;;149.93;49.70;;;18.90;75.70;;;;;;5451297;26;20249;-54
2024/05/07 00:39:46;;;;;;;149.63;49.27;;;18.90;76.20;;;;;;5451679;26;20849;-53
2024/05/07 00:42:16;;;;;;;150.40;49.67;;;18.90;76.90;;;;;;5450500;26;20246;-54
2024/05/07 00:44:46;;;;;;;149.50;49.20;;;18.90;77.20;;;;;;5461664;26;20241;-54
2024/05/07 00:47:17;;;;;;;149.73;49.47;;;18.90;76.10;;;;;;5491412;26;20245;-53
2024/05/07 00:49:47;;;;;;;149.43;49.10;;;18.90;77.40;;;;;;5491011;26;20267;-54
2024/05/07 00:52:20;;;;;;;149.53;49.13;;;18.80;75.80;;;;;;5491238;26;20345;-53
2024/05/07 00:54:50;;;;;;;149.87;49.33;;;18.80;76.10;;;;;;5490577;26;20579;-55
2024/05/07 00:57:21;;;;;;;150.07;49.50;;;18.80;76.70;;;;;;5490968;26;20674;-54
2024/05/07 00:59:51;;;;;;;149.80;49.30;;;18.70;77.60;;;;;;5490899;26;20332;-54
2024/05/07 01:02:23;;;;;;;149.93;49.57;;;18.80;78.00;;;;;;5486866;26;20344;-54
2024/05/07 01:04:53;;;;;;;150.03;49.63;;;18.80;77.70;;;;;;5454392;26;20222;-54
2024/05/07 01:07:26;;;;;;;149.93;49.37;;;19.00;78.10;;;;;;5454499;26;20280;-54
2024/05/07 01:09:56;;;;;;;149.97;49.47;;;19.00;77.40;;;;;;5454265;26;20237;-54
2024/05/07 01:12:26;;;;;;;150.10;49.67;;;19.00;77.80;;;;;;5454328;26;20309;-53
2024/05/07 01:14:56;;;;;;;150.37;49.70;;;18.90;76.50;;;;;;5454419;26;20230;-52
2024/05/07 01:17:26;;;;;;;150.23;49.80;;;18.90;76.70;;;;;;5454027;26;20342;-53
2024/05/07 01:19:56;;;;;;;149.67;49.33;;;18.90;77.30;;;;;;5454496;26;20695;-54
2024/05/07 01:22:32;;;;;;;149.33;49.40;;;18.90;76.00;;;;;;5454290;26;20327;-55
2024/05/07 01:25:06;;;;;;;149.33;48.97;;;18.80;76.10;;;;;;5454176;26;20237;-54
2024/05/07 01:27:36;;;;;;;150.37;49.60;;;18.80;76.00;;;;;;5453642;26;20233;-53
2024/05/07 01:30:06;;;;;;;150.37;49.67;;;18.70;77.20;;;;;;5454158;26;20226;-53
2024/05/07 01:32:41;;;;;;;149.73;49.47;;;18.70;76.30;;;;;;5454204;26;20349;-53
2024/05/07 01:35:13;;;;;;;150.03;49.47;;;18.70;77.30;;;;;;5453961;26;20226;-54
2024/05/07 01:37:44;;;;;;;149.13;49.00;;;18.70;77.60;;;;;;5453842;26;20695;-54
2024/05/07 01:40:17;;;;;;;149.50;49.27;;;18.60;76.50;;;;;;5453654;26;20266;-53
2024/05/07 01:42:59;;;;;;;149.53;49.20;;;18.50;76.30;;;;;;5453947;26;20230;-54
2024/05/07 01:45:29;;;;;;;149.97;49.27;;;18.50;76.90;;;;;;5474623;26;20233;-54
2024/05/07 01:47:59;;;;;;;149.30;49.17;;;18.50;77.30;;;;;;5490149;26;20729;-54
2024/05/07 01:50:29;;;;;;;149.23;48.83;;;18.60;77.70;;;;;;5490095;26;20652;-54
2024/05/07 01:53:08;;;;;;;149.80;49.30;;;18.60;77.70;;;;;;5490326;26;20341;-54
2024/05/07 01:55:43;;;;;;;150.10;49.33;;;18.70;78.40;;;;;;5489957;26;20285;-54
2024/05/07 01:58:14;;;;;;;149.97;49.60;;;18.60;76.80;;;;;;5489219;26;20237;-54
2024/05/07 02:00:44;;;;;;;149.63;49.40;;;18.60;76.90;;;;;;5490135;26;20224;-54
2024/05/07 02:03:16;;;;;;;149.53;49.23;;;18.70;78.10;;;;;;5472819;26;20296;-55
2024/05/07 02:05:46;;;;;;;149.53;49.27;;;18.70;77.60;;;;;;5453435;26;20226;-54
2024/05/07 02:08:16;;;;;;;149.77;49.17;;;18.60;77.00;;;;;;5453616;26;20241;-54
2024/05/07 02:10:49;;;;;;;149.20;49.00;;;18.60;77.40;;;;;;5453124;26;20226;-54
2024/05/07 02:13:19;;;;;;;149.57;49.03;;;18.50;78.60;;;;;;5453301;26;20281;-55
2024/05/07 02:15:49;;;;;;;148.87;48.63;;;18.40;77.50;;;;;;5453632;26;20227;-53
2024/05/07 02:18:19;;;;;;;149.10;49.03;;;18.50;78.30;;;;;;5453369;26;20723;-53
2024/05/07 02:20:50;;;;;;;148.93;48.97;;;18.50;79.70;;;;;;5453423;26;20312;-53
2024/05/07 02:23:20;;;;;;;149.70;49.20;;;18.50;78.10;;;;;;5452978;26;20301;-54
2024/05/07 02:25:52;;;;;;;149.37;49.07;;;18.40;78.80;;;;;;5453600;26;20322;-54
2024/05/07 02:28:23;;;;;;;149.40;49.03;;;18.50;78.60;;;;;;5452993;26;20226;-54
2024/05/07 02:30:53;;;;;;;149.47;49.10;;;18.40;78.80;;;;;;5453498;26;20226;-54
2024/05/07 02:33:23;;;;;;;149.53;49.37;;;18.50;80.70;;;;;;5453175;26;20398;-53
2024/05/07 02:35:53;;;;;;;149.10;48.93;;;18.40;78.10;;;;;;5453215;26;20272;-53
2024/05/07 02:38:21;;;;;;;149.33;49.20;;;18.50;79.40;;;;;;5453146;26;20787;-54
2024/05/07 02:40:54;;;;;;;148.77;48.57;;;18.50;77.90;;;;;;5452978;26;20281;-53
2024/05/07 02:43:22;;;;;;;149.60;49.03;;;18.30;77.50;;;;;;5452905;26;20226;-55
2024/05/07 02:45:52;;;;;;;149.50;48.83;;;18.20;78.40;;;;;;5479475;26;20237;-54
2024/05/07 02:48:23;;;;;;;149.40;49.03;;;18.30;78.30;;;;;;5489479;26;20538;-53
2024/05/07 02:50:56;;;;;;;149.33;49.00;;;18.40;78.50;;;;;;5489897;26;20611;-53
2024/05/07 02:53:26;;;;;;;149.07;48.90;;;18.30;79.20;;;;;;5489180;26;20229;-53
2024/05/07 02:55:59;;;;;;;149.17;48.87;;;18.40;78.80;;;;;;5452662;26;20708;-54
2024/05/07 02:58:29;;;;;;;148.67;48.53;;;18.30;78.20;;;;;;5453180;26;20272;-53
2024/05/07 03:00:59;;;;;;;149.43;48.97;;;18.30;80.80;;;;;;5453052;26;20230;-54
2024/05/07 03:03:29;;;;;;;149.00;48.73;;;18.30;79.10;;;;;;5473833;26;20625;-53
2024/05/07 03:05:59;;;;;;;149.10;49.07;;;18.30;80.00;;;;;;5488980;26;20607;-53
2024/05/07 03:08:30;;;;;;;148.53;48.70;;;18.40;78.50;;;;;;5487186;26;20263;-53
2024/05/07 03:11:04;;;;;;;149.37;48.90;;;18.30;79.10;;;;;;5488917;26;20275;-53
2024/05/07 03:13:34;;;;;;;149.97;49.37;;;18.40;79.20;;;;;;5488932;26;20259;-53
2024/05/07 03:16:04;;;;;;;149.93;49.30;;;18.30;78.90;;;;;;5488967;26;20233;-53
2024/05/07 03:18:34;;;;;;;149.50;49.00;;;18.30;78.20;;;;;;5489068;26;20233;-53
2024/05/07 03:21:05;;;;;;;150.50;49.70;;;18.50;81.10;;;;;;5488967;26;20251;-53
2024/05/07 03:23:35;;;;;;;149.50;49.17;;;18.40;80.30;;;;;;5489048;26;20710;-54
2024/05/07 03:26:12;;;;;;;148.33;48.40;;;18.30;78.80;;;;;;5488361;26;20236;-53
2024/05/07 03:28:42;;;;;;;148.67;48.50;;;18.30;80.50;;;;;;5488620;26;20224;-53
2024/05/07 03:31:12;;;;;;;149.67;49.13;;;18.30;82.30;;;;;;5488766;26;20591;-54
2024/05/07 03:33:43;;;;;;;148.50;48.50;;;18.20;81.20;;;;;;5488868;26;20405;-53
2024/05/07 03:36:13;;;;;;;149.00;48.90;;;18.40;82.10;;;;;;5488498;26;20225;-53
2024/05/07 03:38:43;;;;;;;148.90;48.90;;;18.20;81.60;;;;;;5482547;26;20338;-52
2024/05/07 03:41:16;;;;;;;149.40;48.90;;;18.20;80.90;;;;;;5480997;26;20248;-57
2024/05/07 03:43:46;;;;;;;149.30;49.07;;;18.20;81.40;;;;;;5479846;26;20253;-53
2024/05/07 03:46:16;;;;;;;149.47;48.87;;;18.30;81.90;;;;;;5481632;26;20248;-52
2024/05/07 03:48:46;;;;;;;149.40;49.17;;;18.20;80.20;;;;;;5486062;26;20241;-52
2024/05/07 03:51:18;;;;;;;149.07;48.93;;;18.10;80.10;;;;;;5486004;26;20293;-52
2024/05/07 03:53:48;;;;;;;149.30;49.23;;;18.10;82.40;;;;;;5485732;26;20660;-52
2024/05/07 03:56:23;;;;;;;148.70;48.73;;;18.20;81.00;;;;;;5485582;26;20564;-52
2024/05/07 03:58:53;;;;;;;149.23;48.93;;;18.10;80.70;;;;;;5485423;26;20753;-58
2024/05/07 04:01:23;;;;;;;148.97;48.77;;;18.10;82.60;;;;;;5486491;26;20276;-53
2024/05/07 04:03:54;;;;;;;149.00;48.77;;;18.10;82.30;;;;;;5484960;26;20325;-52
2024/05/07 04:06:24;;;;;;;148.00;48.27;;;18.20;83.20;;;;;;5485878;26;20296;-52
2024/05/07 04:08:54;;;;;;;149.33;49.23;;;18.10;81.40;;;;;;5485865;26;20261;-52
2024/05/07 04:11:27;;;;;;;148.70;48.67;;;18.10;82.40;;;;;;5485341;26;20312;-53
2024/05/07 04:13:57;;;;;;;148.03;48.63;;;18.20;82.10;;;;;;5484931;26;20260;-52
2024/05/07 04:16:27;;;;;;;148.50;48.70;;;18.20;82.20;;;;;;5485728;26;20300;-52
2024/05/07 04:18:57;;;;;;;149.10;48.80;;;18.10;81.60;;;;;;5486091;26;20738;-51
2024/05/07 04:21:27;;;;;;;148.63;48.70;;;18.10;82.40;;;;;;5485110;26;20639;-50
2024/05/07 04:23:57;;;;;;;148.93;49.07;;;18.10;82.10;;;;;;5485067;26;20257;-50
2024/05/07 04:26:30;;;;;;;148.37;48.50;;;18.00;82.40;;;;;;5485872;26;20261;-50
2024/05/07 04:29:01;;;;;;;148.73;48.67;;;18.10;83.30;;;;;;5485358;26;20241;-50
2024/05/07 04:31:31;;;;;;;149.30;49.07;;;18.10;82.00;;;;;;5485576;26;20757;-52
2024/05/07 04:34:01;;;;;;;149.70;49.27;;;18.00;81.20;;;;;;5466185;26;20309;-51
2024/05/07 04:36:31;;;;;;;148.73;48.83;;;18.00;83.00;;;;;;5456206;26;20265;-51
2024/05/07 04:39:01;;;;;;;149.37;49.23;;;17.90;82.50;;;;;;5478599;26;20737;-50
2024/05/07 04:41:34;;;;;;;149.20;49.07;;;18.00;82.00;;;;;;5483400;26;20611;-50
2024/05/07 04:44:04;;;;;;;149.17;49.00;;;17.90;82.00;;;;;;5484756;26;20357;-51
2024/05/07 04:46:34;;;;;;;149.10;48.93;;;18.00;82.60;;;;;;5474142;26;20649;-53
2024/05/07 04:49:04;;;;;;;149.60;49.37;;;17.90;82.60;;;;;;5483735;26;20245;-50
2024/05/07 04:51:34;;;;;;;148.40;48.70;;;18.10;83.90;;;;;;5484871;26;20290;-50
2024/05/07 04:54:04;;;;;;;148.53;48.60;;;18.10;83.40;;;;;;5471626;26;20317;-50
2024/05/07 04:56:37;;;;;;;148.20;48.43;;;18.20;83.70;;;;;;5484471;26;20257;-50
2024/05/07 04:59:07;;;;;;;148.87;48.67;;;18.10;83.30;;;;;;5484190;26;20340;-51
2024/05/07 05:01:37;;;;;;;147.77;48.10;;;18.10;85.00;;;;;;5484569;26;20283;-51
2024/05/07 05:04:07;;;;;;;148.73;48.73;;;18.00;85.20;;;;;;5481967;26;20249;-51
2024/05/07 05:06:37;;;;;;;149.07;48.93;;;18.00;84.90;;;;;;5481278;26;20726;-50
2024/05/07 05:09:08;;;;;;;148.20;48.53;;;18.00;82.90;;;;;;5484541;26;20684;-51
2024/05/07 05:11:40;;;;;;;148.93;48.83;;;18.10;84.40;;;;;;5483731;26;20273;-52
2024/05/07 05:14:11;;;;;;;149.57;49.07;;;18.10;83.30;;;;;;5484849;26;20249;-52
2024/05/07 05:16:41;;;;;;;148.87;48.83;;;18.20;84.20;;;;;;5482583;26;20352;-52
2024/05/07 05:19:11;;;;;;;148.50;48.57;;;18.10;83.70;;;;;;5480245;26;20245;-52
2024/05/07 05:21:41;;;;;;;149.07;49.17;;;18.10;84.60;;;;;;5448457;26;20242;-52
2024/05/07 05:24:11;;;;;;;148.70;48.53;;;18.00;83.20;;;;;;5450658;26;20238;-52
2024/05/07 05:26:44;;;;;;;148.77;48.70;;;17.90;84.60;;;;;;5450497;26;20696;-49
2024/05/07 05:29:14;;;;;;;149.43;49.07;;;18.00;83.20;;;;;;5450461;26;20336;-52
2024/05/07 05:31:44;;;;;;;149.03;48.80;;;17.90;84.10;;;;;;5451188;26;20249;-54
2024/05/07 05:34:14;;;;;;;148.53;48.60;;;17.90;83.90;;;;;;5476274;26;20714;-53
2024/05/07 05:36:45;;;;;;;148.93;48.93;;;17.90;83.50;;;;;;5490254;26;20640;-52
2024/05/07 05:39:20;;;;;;;149.03;49.00;;;17.90;85.40;;;;;;5490472;26;20818;-52
2024/05/07 05:41:54;;;;;;;149.13;48.80;;;17.80;84.30;;;;;;5490615;26;20248;-52
2024/05/07 05:44:25;;;;;;;149.07;48.90;;;17.90;84.60;;;;;;5490596;26;20224;-52
2024/05/07 05:46:55;;;;;;;148.40;48.57;;;18.10;85.20;;;;;;5490557;26;20352;-52
2024/05/07 05:49:25;;;;;;;148.43;48.73;;;18.30;85.00;;;;;;5490204;26;20552;-51
2024/05/07 05:51:55;;;;;;;148.37;48.60;;;18.20;83.50;;;;;;5490625;26;20233;-52
2024/05/07 05:54:25;;;;;;;148.83;49.03;;;18.10;83.60;;;;;;5475703;26;20341;-52
2024/05/07 05:56:58;;;;;;;149.10;49.10;;;18.10;83.30;;;;;;5453935;26;20246;-52
2024/05/07 05:59:28;;;;;;;148.30;48.70;;;18.30;84.80;;;;;;5453778;26;20226;-52
2024/05/07 06:01:58;;;;;;;149.20;49.30;;;18.40;85.00;;;;;;5453837;26;20863;-52
2024/05/07 06:04:28;;;;;;;149.30;49.27;;;18.30;82.50;;;;;;5489447;26;20237;-52
2024/05/07 06:06:58;;;;;;;149.30;48.73;;;18.30;83.20;;;;;;5490167;26;20237;-52
2024/05/07 06:09:28;;;;;;;148.77;48.50;;;17.90;81.50;;;;;;5489833;26;20224;-52
2024/05/07 06:12:01;;;;;;;149.23;48.63;;;18.00;85.40;;;;;;5490073;26;20310;-52
2024/05/07 06:14:31;;;;;;;149.57;48.87;;;17.90;84.70;;;;;;5489958;26;20241;-52
2024/05/07 06:17:01;;;;;;;149.30;48.70;;;17.80;83.70;;;;;;5490130;26;20232;-51
2024/05/07 06:19:31;;;;;;;149.53;48.73;;;17.50;84.70;;;;;;5490098;26;20237;-53
2024/05/07 06:22:01;;;;;;;149.50;48.73;;;17.50;85.30;;;;;;5489717;26;20275;-51
2024/05/07 06:24:31;;;;;;;148.73;48.37;;;17.60;85.20;;;;;;5489676;26;20313;-51
2024/05/07 06:27:04;;;;;;;148.93;48.30;;;17.50;84.60;;;;;;5489853;26;20248;-52
2024/05/07 06:29:34;;;;;;;148.27;48.03;;;17.70;84.60;;;;;;5490125;26;20682;-52
2024/05/07 06:32:04;;;;;;;149.23;48.47;;;17.60;85.40;;;;;;5483921;26;20617;-51
2024/05/07 06:34:35;;;;;;;149.17;48.40;;;17.70;85.30;;;;;;5481231;26;21052;-52
2024/05/07 06:37:05;;;;;;;149.10;48.33;;;17.40;85.80;;;;;;5480110;26;20327;-51
2024/05/07 06:39:35;;;;;;;148.93;48.37;;;17.40;85.30;;;;;;5482734;26;20297;-50
2024/05/07 06:42:08;;;;;;;148.73;48.63;;;17.60;86.40;;;;;;5481239;26;20261;-50
2024/05/07 06:44:38;;;;;;;148.50;48.13;;;17.40;85.90;;;;;;5481746;26;20258;-52
2024/05/07 06:47:08;;;;;;;149.23;48.40;;;17.60;89.90;;;;;;5480169;26;20253;-50
2024/05/07 06:49:38;;;;;;;149.10;48.47;;;17.40;87.90;;;;;;5483146;26;20360;-50
2024/05/07 06:52:09;;;;;;;148.00;47.97;;;17.40;87.00;;;;;;5484777;26;20252;-50
2024/05/07 06:54:39;;;;;;;149.27;48.67;;;17.60;87.10;;;;;;5481682;26;20621;-50
2024/05/07 06:57:11;;;;;;;147.93;48.00;;;17.50;87.60;;;;;;5481912;26;20783;-50
2024/05/07 06:59:41;;;;;;;148.67;48.30;;;17.40;87.80;;;;;;5485622;26;20241;-50
2024/05/07 07:02:11;;;;;;;148.63;48.20;;;17.60;86.60;;;;;;5477297;26;20706;-50
2024/05/07 07:04:41;;;;;;;148.87;48.43;;;17.50;87.00;;;;;;5483916;26;20594;-51
2024/05/07 07:07:12;;;;;;;148.50;48.33;;;17.50;87.00;;;;;;5483012;26;20261;-50
2024/05/07 07:09:43;;;;;;;148.10;48.00;;;17.60;87.90;;;;;;5481960;26;20252;-50
2024/05/07 07:12:15;;;;;;;149.07;48.80;;;17.80;85.50;;;;;;5484520;26;21979;-52
2024/05/07 07:14:45;;;;;;;148.33;48.33;;;18.10;87.30;;;;;;5485586;26;20245;-50
2024/05/07 07:17:15;;;;;;;149.03;48.73;;;17.90;85.50;;;;;;5483264;26;20643;-50
2024/05/07 07:19:46;;;;;;;148.80;48.63;;;17.80;85.40;;;;;;5479284;26;20309;-51
2024/05/07 07:22:16;;;;;;;149.07;48.80;;;18.20;86.70;;;;;;5485084;26;20300;-51
2024/05/07 07:24:46;;;;;;;149.73;49.23;;;18.30;83.80;;;;;;5460200;26;20276;-51
2024/05/07 07:27:18;;;;;;;149.17;48.87;;;18.20;85.50;;;;;;5450479;26;20254;-50
2024/05/07 07:29:48;;;;;;;149.43;48.97;;;18.20;84.70;;;;;;5452569;26;20230;-50
2024/05/07 07:32:18;;;;;;;149.50;49.00;;;18.30;83.90;;;;;;5452532;26;20249;-50
2024/05/07 07:34:48;;;;;;;149.93;49.17;;;18.20;84.40;;;;;;5483286;26;20328;-50
2024/05/07 07:37:19;;;;;;;149.60;48.87;;;18.30;85.30;;;;;;5489012;26;20585;-51
2024/05/07 07:39:49;;;;;;;148.80;48.73;;;18.30;83.50;;;;;;5488678;26;20220;-51
2024/05/07 07:42:21;;;;;;;149.23;49.00;;;18.50;83.00;;;;;;5488983;26;20245;-52
2024/05/07 07:44:51;;;;;;;149.87;49.20;;;18.60;83.10;;;;;;5488794;26;20241;-53
2024/05/07 07:47:21;;;;;;;149.13;49.00;;;18.60;83.70;;;;;;5488392;26;20822;-52
2024/05/07 07:49:52;;;;;;;149.40;49.13;;;18.80;83.30;;;;;;5488149;26;20285;-52
2024/05/07 07:52:22;;;;;;;150.17;49.53;;;19.20;82.40;;;;;;5488889;26;20719;-52
2024/05/07 07:54:52;;;;;;;150.40;49.67;;;19.30;81.90;;;;;;5466158;26;20242;-52
2024/05/07 07:57:25;;;;;;;150.07;49.87;;;19.40;79.40;;;;;;5452337;26;20250;-52
2024/05/07 07:59:55;;;;;;;149.40;49.30;;;19.60;80.40;;;;;;5452030;26;20333;-52
2024/05/07 08:02:25;;;;;;;151.03;50.43;;;20.00;79.60;;;;;;5457313;26;20260;-52
2024/05/07 08:04:56;;;;;;;151.00;50.50;;;20.30;77.20;;;;;;5488796;26;20805;-52
2024/05/07 08:07:26;;;;;;;150.20;50.20;;;20.60;75.90;;;;;;5488796;26;20300;-52
2024/05/07 08:09:56;;;;;;;151.03;50.70;;;20.90;73.60;;;;;;5488112;26;20273;-52
2024/05/07 08:12:28;;;;;;;150.90;50.57;;;20.60;73.80;;;;;;5488068;26;20241;-52
2024/05/07 08:15:00;;;;;;;151.60;51.60;;;21.10;73.80;;;;;;5488483;26;20269;-52
2024/05/07 08:17:30;;;;;;;151.97;51.70;;;21.70;74.30;;;;;;5488292;26;20288;-54
2024/05/07 08:20:01;;;;;;;152.37;52.03;;;22.10;74.60;;;;;;5488046;26;20228;-52
2024/05/07 08:22:34;;;;;;;152.77;52.17;;;22.30;73.60;;;;;;5488078;26;20244;-51
2024/05/07 08:25:04;;;;;;;153.07;52.63;;;22.40;73.00;;;;;;5482337;26;20264;-53
2024/05/07 08:27:36;;;;;;;152.90;52.37;;;22.40;73.40;;;;;;5488718;26;20241;-51
2024/05/07 08:30:08;;;;;;;153.13;52.90;;;22.60;72.10;;;;;;5489115;26;20689;-51
2024/05/07 08:32:54;;;;;;;154.43;53.27;;;23.10;72.20;;;;;;5487324;26;20301;-52
2024/05/07 08:35:24;;;;;;;154.83;53.70;;;22.60;70.20;;;;;;5453086;26;20330;-50
2024/05/07 08:37:54;;;;;;;154.40;53.67;;;22.50;71.10;;;;;;5451972;26;20235;-50
2024/05/07 08:40:24;;;;;;;154.07;53.30;;;22.40;70.70;;;;;;5451487;26;20234;-51
2024/05/07 08:43:07;;;;;;;154.40;53.53;;;22.40;71.20;;;;;;5451668;26;20245;-53
2024/05/07 08:45:38;;;;;;;153.93;53.13;;;22.20;71.20;;;;;;5451247;26;20333;-54
2024/05/07 08:48:10;;;;;;;154.03;53.10;;;22.10;72.10;;;;;;5451764;26;20711;-53
2024/05/07 08:50:40;;;;;;;154.77;53.90;;;22.50;72.10;;;;;;5451703;26;20230;-53
2024/05/07 08:53:11;;;;;;;154.23;53.30;;;23.10;71.90;;;;;;5451512;26;20249;-51
2024/05/07 08:55:43;;;;;;;154.47;53.27;;;23.60;70.40;;;;;;5450963;26;20291;-51
2024/05/07 08:58:16;;;;;;;155.33;54.13;;;23.40;69.30;;;;;;5451526;26;20274;-51
2024/05/07 09:00:47;;;;;;;154.53;54.03;;;23.60;69.50;;;;;;5451494;26;20230;-51
2024/05/07 09:03:17;;;;;;;154.73;53.80;;;23.50;69.30;;;;;;5451260;26;20241;-51
2024/05/07 09:05:48;;;;;;;155.37;54.20;;;23.50;69.00;;;;;;5451572;26;20230;-52
2024/05/07 09:08:20;;;;;;;155.00;54.00;;;23.40;69.40;;;;;;5454966;26;20363;-52
2024/05/07 09:10:51;;;;;;;154.90;53.80;;;23.70;69.70;;;;;;5454451;26;20293;-52
2024/05/07 09:13:34;;;;;;;155.23;54.17;;;23.90;68.80;;;;;;5454931;26;20706;-52
2024/05/07 09:16:05;;;;;;;155.60;53.97;;;23.80;68.90;;;;;;5454323;26;20233;-52
2024/05/07 09:18:35;;;;;;;155.37;54.10;;;23.90;69.10;;;;;;5454974;26;20329;-52
2024/05/07 09:21:06;;;;;;;155.03;53.90;;;23.80;69.60;;;;;;5454680;26;20795;-52
2024/05/07 09:23:37;;;;;;;155.57;54.33;;;23.90;69.80;;;;;;5454657;26;20222;-52
2024/05/07 09:26:08;;;;;;;155.40;54.20;;;24.10;69.00;;;;;;5454642;26;20222;-52
2024/05/07 09:28:43;;;;;;;155.43;54.53;;;24.10;68.00;;;;;;5454437;26;20237;-52
2024/05/07 09:31:20;;;;;;;155.67;54.43;;;24.10;68.20;;;;;;5454510;26;20272;-52
2024/05/07 09:33:56;;;;;;;155.30;54.20;;;23.80;68.20;;;;;;5470279;26;20241;-51
2024/05/07 09:36:31;;;;;;;155.13;54.10;;;23.50;69.40;;;;;;5490971;26;20328;-52
2024/05/07 09:39:06;;;;;;;154.77;53.40;;;23.70;69.20;;;;;;5490527;26;20221;-52
2024/05/07 09:41:45;;;;;;;155.07;53.80;;;23.40;68.90;;;;;;5490965;26;20644;-51
2024/05/07 09:44:23;;;;;;;155.53;54.20;;;23.40;69.30;;;;;;5490796;26;20217;-52
2024/05/07 09:46:54;;;;;;;154.97;53.53;;;23.60;69.10;;;;;;5491036;26;20241;-52
2024/05/07 09:49:27;;;;;;;155.50;53.93;;;23.10;69.00;;;;;;5490575;26;20713;-52
2024/05/07 09:51:59;;;;;;;155.73;54.03;;;23.30;70.90;;;;;;5490719;26;20241;-53
2024/05/07 09:54:30;;;;;;;154.70;53.30;;;23.50;69.60;;;;;;5490708;26;20348;-53
2024/05/07 09:57:03;;;;;;;155.80;54.40;;;23.30;69.30;;;;;;5490625;26;20828;-52
2024/05/07 09:59:37;;;;;;;155.43;53.57;;;23.20;70.10;;;;;;5490452;26;20229;-54
2024/05/07 10:02:08;;;;;;;155.10;53.73;;;23.50;69.90;;;;;;5490431;26;20245;-53
2024/05/07 10:04:38;;;;;;;155.10;53.50;;;23.40;70.20;;;;;;5490788;26;20236;-52
2024/05/07 10:07:08;;;;;;;155.60;53.90;;;23.70;70.30;;;;;;5490510;26;20283;-52
2024/05/07 10:09:41;;;;;;;154.53;53.70;;;23.70;67.30;;;;;;5490201;26;20225;-52
2024/05/07 10:12:12;;;;;;;155.00;53.33;;;24.00;70.50;;;;;;5490319;26;20237;-52
2024/05/07 10:14:45;;;;;;;154.27;52.63;;;23.60;69.10;;;;;;5490546;26;20225;-51
2024/05/07 10:17:18;;;;;;;154.80;52.93;;;23.10;69.00;;;;;;5489722;26;20237;-53
2024/05/07 10:19:56;;;;;;;154.00;52.63;;;22.30;70.50;;;;;;5490282;26;20224;-53
2024/05/07 10:22:28;;;;;;;154.17;52.03;;;22.30;71.80;;;;;;5490056;26;20325;-53
2024/05/07 10:25:04;;;;;;;153.87;52.20;;;22.00;72.40;;;;;;5490106;26;20221;-53
2024/05/07 10:27:37;;;;;;;154.47;52.00;;;21.80;75.20;;;;;;5490339;26;20324;-53
2024/05/07 10:30:11;;;;;;;153.50;51.50;;;21.70;75.00;;;;;;5490136;26;20301;-53
2024/05/07 10:33:02;;;;;;;154.00;51.67;;;21.40;75.50;;;;;;5421452;26;949541;-52
2024/05/07 10:35:33;;;;;;;153.53;51.67;;;21.60;77.00;;;;;;5490127;26;20675;-52
2024/05/07 10:38:03;;;;;;;153.47;51.47;;;21.50;74.40;;;;;;5489498;26;20283;-53
2024/05/07 10:40:33;;;;;;;152.73;50.77;;;21.40;76.50;;;;;;5488789;26;20302;-53
2024/05/07 10:43:05;;;;;;;153.40;51.50;;;21.60;76.60;;;;;;5489890;26;20237;-52
2024/05/07 10:45:40;;;;;;;153.83;51.60;;;21.40;76.90;;;;;;5489475;26;20283;-53
2024/05/07 10:48:15;;;;;;;153.93;51.57;;;21.30;76.30;;;;;;5489997;26;20725;-53
2024/05/07 10:50:45;;;;;;;153.07;50.97;;;21.20;75.20;;;;;;5490030;26;20270;-52
2024/05/07 10:53:16;;;;;;;153.80;51.67;;;21.20;75.70;;;;;;5489876;26;20296;-54
2024/05/07 10:55:47;;;;;;;152.13;50.60;;;21.10;76.00;;;;;;5489642;26;20332;-52
2024/05/07 10:58:19;;;;;;;152.73;50.83;;;21.00;77.40;;;;;;5490173;26;20288;-54
2024/05/07 11:00:52;;;;;;;152.73;50.87;;;21.00;75.70;;;;;;5489930;26;20237;-53
2024/05/07 11:03:22;;;;;;;153.10;51.00;;;21.30;75.40;;;;;;5470412;26;20303;-53
2024/05/07 11:05:52;;;;;;;153.00;51.37;;;21.20;75.10;;;;;;5452880;26;20630;-53
2024/05/07 11:08:23;;;;;;;152.47;50.93;;;21.50;74.40;;;;;;5452708;26;20234;-54
2024/05/07 11:10:53;;;;;;;152.97;51.37;;;21.70;72.80;;;;;;5453037;26;20338;-54
2024/05/07 11:13:23;;;;;;;153.70;51.90;;;21.80;72.10;;;;;;5453253;26;20242;-55
2024/05/07 11:15:55;;;;;;;153.00;52.10;;;21.90;70.10;;;;;;5452941;26;20226;-53
2024/05/07 11:18:25;;;;;;;153.67;51.90;;;21.90;72.30;;;;;;5453138;26;20230;-54
2024/05/07 11:21:05;;;;;;;153.33;51.60;;;21.90;71.80;;;;;;5453131;26;20743;-54
2024/05/07 11:23:35;;;;;;;153.07;51.50;;;21.60;71.10;;;;;;5452901;26;20763;-53
2024/05/07 11:26:08;;;;;;;152.37;50.83;;;21.40;72.90;;;;;;5453058;26;20226;-54
2024/05/07 11:28:38;;;;;;;152.13;50.57;;;21.20;73.80;;;;;;5451871;26;20590;-52
2024/05/07 11:31:11;;;;;;;152.67;51.03;;;20.90;72.90;;;;;;5451773;26;20226;-55
2024/05/07 11:33:41;;;;;;;153.00;51.47;;;20.90;75.70;;;;;;5452794;26;20286;-53
2024/05/07 11:36:11;;;;;;;152.97;51.10;;;21.10;75.70;;;;;;5452942;26;20230;-53
2024/05/07 11:38:41;;;;;;;152.40;50.90;;;21.30;75.70;;;;;;5452313;26;20287;-53
2024/05/07 11:41:11;;;;;;;152.40;50.87;;;21.00;74.50;;;;;;5452873;26;20221;-53
2024/05/07 11:43:44;;;;;;;152.83;51.17;;;20.90;75.20;;;;;;5452908;26;20703;-57
2024/05/07 11:46:16;;;;;;;152.53;50.97;;;20.80;75.30;;;;;;5484377;26;20664;-53
2024/05/07 11:48:47;;;;;;;151.97;50.77;;;21.10;74.90;;;;;;5489142;26;20641;-53
2024/05/07 11:51:17;;;;;;;152.63;51.07;;;21.00;73.50;;;;;;5488950;26;20268;-54
2024/05/07 11:53:47;;;;;;;152.97;51.27;;;21.30;74.90;;;;;;5487550;26;20745;-53
2024/05/07 11:56:18;;;;;;;152.60;50.87;;;21.60;75.20;;;;;;5488489;26;20328;-54
2024/05/07 11:58:48;;;;;;;153.00;51.53;;;21.40;73.20;;;;;;5488726;26;20326;-53
2024/05/07 12:01:21;;;;;;;153.20;51.37;;;21.50;74.20;;;;;;5488728;26;20237;-54
2024/05/07 12:03:51;;;;;;;152.80;51.13;;;21.80;74.90;;;;;;5462559;26;20277;-54
2024/05/07 12:06:21;;;;;;;153.57;51.67;;;21.70;72.30;;;;;;5452417;26;20242;-53
2024/05/07 12:08:54;;;;;;;152.63;51.40;;;21.30;70.20;;;;;;5451959;26;20637;-53
2024/05/07 12:11:24;;;;;;;153.07;51.50;;;21.20;71.60;;;;;;5452310;26;20246;-52
2024/05/07 12:13:54;;;;;;;152.07;50.93;;;21.50;73.50;;;;;;5452396;26;20257;-52
2024/05/07 12:16:27;;;;;;;152.73;51.17;;;21.50;71.60;;;;;;5452454;26;20280;-53
2024/05/07 12:18:57;;;;;;;152.33;51.33;;;21.50;72.60;;;;;;5452484;26;20280;-52
2024/05/07 12:21:29;;;;;;;152.50;51.07;;;21.40;70.90;;;;;;5451882;26;20234;-54
2024/05/07 12:26:45;;;;;;;152.37;50.83;;;21.40;70.80;;;;;;5451997;26;20250;-53
2024/05/07 12:29:15;;;;;;;152.23;50.97;;;21.20;71.80;;;;;;5451756;26;20226;-53
2024/05/07 12:31:48;;;;;;;152.70;51.43;;;21.30;72.00;;;;;;5452078;26;20276;-55
2024/05/07 12:34:18;;;;;;;152.53;50.87;;;21.20;70.90;;;;;;5451257;26;20254;-53
2024/05/07 12:36:51;;;;;;;152.30;51.17;;;21.30;70.90;;;;;;5451895;26;20246;-52
2024/05/07 12:39:24;;;;;;;152.73;51.27;;;21.30;71.50;;;;;;5451255;26;20242;-52
2024/05/07 12:41:54;;;;;;;152.17;51.00;;;21.10;69.20;;;;;;5451060;26;20669;-53